sensor_id;sensor_type;location;lat;lon;timestamp;temperature;humidity
70076;DHT22;63241;51.056;3.698;2023-08-08T01:47:22;13.30;99.90
70076;DHT22;63241;51.056;3.698;2023-08-08T01:50:10;13.30;99.90
70076;DHT22;63241;51.056;3.698;2023-08-08T01:52:56;13.20;99.90
70076;DHT22;63241;51.056;3.698;2023-08-08T01:59:36;13.20;99.90
70076;DHT22;63241;51.056;3.698;2023-08-08T02:02:22;13.20;99.90
70076;DHT22;63241;51.056;3.698;2023-08-08T02:05:08;13.10;99.90
70076;DHT22;63241;51.056;3.698;2023-08-08T02:12:04;13.10;99.90
70076;DHT22;63241;51.056;3.698;2023-08-08T02:14:50;13.10;99.90
70076;DHT22;63241;51.056;3.698;2023-08-08T02:17:38;13.10;99.90
70076;DHT22;63241;51.056;3.698;2023-08-08T02:20:24;13.00;99.90
70076;DHT22;63241;51.056;3.698;2023-08-08T02:23:34;13.10;99.90
70076;DHT22;63241;51.056;3.698;2023-08-08T02:29:25;12.90;99.90
70076;DHT22;63241;51.056;3.698;2023-08-08T02:32:36;12.90;99.90
70076;DHT22;63241;51.056;3.698;2023-08-08T02:35:24;12.90;99.90
70076;DHT22;63241;51.056;3.698;2023-08-08T02:38:10;12.90;99.90
70076;DHT22;63241;51.056;3.698;2023-08-08T02:40:57;12.90;99.90
70076;DHT22;63241;51.056;3.698;2023-08-08T02:47:44;12.90;99.90
70076;DHT22;63241;51.056;3.698;2023-08-08T02:50:31;12.90;99.90
70076;DHT22;63241;51.056;3.698;2023-08-08T02:53:17;12.80;99.90
70076;DHT22;63241;51.056;3.698;2023-08-08T03:00:12;12.90;99.90
70076;DHT22;63241;51.056;3.698;2023-08-08T03:02:58;12.90;99.90
70076;DHT22;63241;51.056;3.698;2023-08-08T03:05:45;12.90;99.90
70076;DHT22;63241;51.056;3.698;2023-08-08T03:08:31;12.90;99.90
70076;DHT22;63241;51.056;3.698;2023-08-08T03:15:19;12.80;99.90
70076;DHT22;63241;51.056;3.698;2023-08-08T03:18:07;12.90;99.90
70076;DHT22;63241;51.056;3.698;2023-08-08T03:20:53;12.80;99.90
70076;DHT22;63241;51.056;3.698;2023-08-08T05:58:51;17.70;99.90
70076;DHT22;63241;51.056;3.698;2023-08-08T06:01:37;17.90;99.90
70076;DHT22;63241;51.056;3.698;2023-08-08T06:04:24;18.30;99.90
70076;DHT22;63241;51.056;3.698;2023-08-08T06:11:17;19.50;99.90
70076;DHT22;63241;51.056;3.698;2023-08-08T06:14:03;21.00;99.90
70076;DHT22;63241;51.056;3.698;2023-08-08T06:16:49;23.50;99.90
70076;DHT22;63241;51.056;3.698;2023-08-08T06:19:35;26.00;92.60
70076;DHT22;63241;51.056;3.698;2023-08-08T06:26:24;29.20;62.00
70076;DHT22;63241;51.056;3.698;2023-08-08T06:29:10;30.20;55.90
70076;DHT22;63241;51.056;3.698;2023-08-08T06:31:57;30.50;52.40
70076;DHT22;63241;51.056;3.698;2023-08-08T06:35:22;30.10;52.90
70076;DHT22;63241;51.056;3.698;2023-08-08T06:38:44;29.60;51.50
70076;DHT22;63241;51.056;3.698;2023-08-08T06:41:32;28.20;52.60
70076;DHT22;63241;51.056;3.698;2023-08-08T06:44:18;27.90;54.50
70076;DHT22;63241;51.056;3.698;2023-08-08T06:47:05;27.00;55.30
70076;DHT22;63241;51.056;3.698;2023-08-08T06:53:43;25.60;59.10
70076;DHT22;63241;51.056;3.698;2023-08-08T06:56:30;24.90;61.80
70076;DHT22;63241;51.056;3.698;2023-08-08T06:59:16;24.40;63.30
70076;DHT22;63241;51.056;3.698;2023-08-08T08:06:45;20.50;82.30
70076;DHT22;63241;51.056;3.698;2023-08-08T08:10:05;20.10;84.20
70076;DHT22;63241;51.056;3.698;2023-08-08T12:08:11;35.40;33.90
70076;DHT22;63241;51.056;3.698;2023-08-08T12:11:00;34.60;33.40
70076;DHT22;63241;51.056;3.698;2023-08-08T12:13:47;35.10;33.50
70076;DHT22;63241;51.056;3.698;2023-08-08T12:16:33;34.80;33.60
70076;DHT22;63241;51.056;3.698;2023-08-08T12:19:24;33.60;34.70
70076;DHT22;63241;51.056;3.698;2023-08-08T12:22:10;32.50;35.60
70076;DHT22;63241;51.056;3.698;2023-08-08T12:24:56;32.40;37.20
70076;DHT22;63241;51.056;3.698;2023-08-08T12:27:42;32.20;36.80
70076;DHT22;63241;51.056;3.698;2023-08-08T12:30:29;31.60;37.70
70076;DHT22;63241;51.056;3.698;2023-08-08T12:33:15;30.80;38.60
70076;DHT22;63241;51.056;3.698;2023-08-08T12:36:01;30.40;39.60
70076;DHT22;63241;51.056;3.698;2023-08-08T12:38:47;29.70;40.20
70076;DHT22;63241;51.056;3.698;2023-08-08T12:41:33;29.40;42.10
70076;DHT22;63241;51.056;3.698;2023-08-08T12:44:20;28.70;41.40
70076;DHT22;63241;51.056;3.698;2023-08-08T12:47:06;28.70;42.90
70076;DHT22;63241;51.056;3.698;2023-08-08T12:49:52;29.10;42.50
70076;DHT22;63241;51.056;3.698;2023-08-08T12:52:39;29.50;41.70
70076;DHT22;63241;51.056;3.698;2023-08-08T12:55:25;29.70;41.30
70076;DHT22;63241;51.056;3.698;2023-08-08T12:58:11;29.40;41.80
70076;DHT22;63241;51.056;3.698;2023-08-08T13:00:57;29.50;41.90
70076;DHT22;63241;51.056;3.698;2023-08-08T13:03:44;29.40;42.70
70076;DHT22;63241;51.056;3.698;2023-08-08T13:06:31;29.30;40.60
70076;DHT22;63241;51.056;3.698;2023-08-08T13:09:18;29.30;41.70
70076;DHT22;63241;51.056;3.698;2023-08-08T13:12:04;29.90;41.60
70076;DHT22;63241;51.056;3.698;2023-08-08T13:14:50;30.10;40.80
70076;DHT22;63241;51.056;3.698;2023-08-08T13:17:36;30.20;41.20
70076;DHT22;63241;51.056;3.698;2023-08-08T13:20:25;30.00;40.60
70076;DHT22;63241;51.056;3.698;2023-08-08T13:23:10;29.30;41.40
70076;DHT22;63241;51.056;3.698;2023-08-08T13:25:56;28.70;42.00
70076;DHT22;63241;51.056;3.698;2023-08-08T13:28:43;27.90;44.40
70076;DHT22;63241;51.056;3.698;2023-08-08T13:31:29;27.50;45.00
70076;DHT22;63241;51.056;3.698;2023-08-08T13:34:15;26.90;46.80
70076;DHT22;63241;51.056;3.698;2023-08-08T13:37:01;26.60;47.30
70076;DHT22;63241;51.056;3.698;2023-08-08T13:39:48;25.80;49.40
70076;DHT22;63241;51.056;3.698;2023-08-08T13:42:34;25.50;50.00
70076;DHT22;63241;51.056;3.698;2023-08-08T13:45:20;25.10;51.50
70076;DHT22;63241;51.056;3.698;2023-08-08T13:48:08;24.60;52.40
70076;DHT22;63241;51.056;3.698;2023-08-08T13:50:54;24.40;53.40
70076;DHT22;63241;51.056;3.698;2023-08-08T13:53:40;24.20;53.90
70076;DHT22;63241;51.056;3.698;2023-08-08T13:56:26;24.10;54.60
70076;DHT22;63241;51.056;3.698;2023-08-08T13:59:12;24.20;55.20
70076;DHT22;63241;51.056;3.698;2023-08-08T14:01:59;24.50;54.20
70076;DHT22;63241;51.056;3.698;2023-08-08T14:04:45;24.50;54.40
70076;DHT22;63241;51.056;3.698;2023-08-08T14:07:36;24.20;55.30
70076;DHT22;63241;51.056;3.698;2023-08-08T14:10:20;24.10;55.20
70076;DHT22;63241;51.056;3.698;2023-08-08T14:13:06;24.00;55.40
70076;DHT22;63241;51.056;3.698;2023-08-08T14:15:52;23.80;55.70
70076;DHT22;63241;51.056;3.698;2023-08-08T14:18:38;23.50;56.60
70076;DHT22;63241;51.056;3.698;2023-08-08T14:21:24;23.40;58.00
